Terminal Aerodrome Forecast
Issued by NWS

Current Version | Previous Version | Text Only | Print | Product List | Glossary Off
Versions: 1 2 3 4 5 6 7 8 9 10 11 12 13 14 15 16 17 18 19 20 21 22

000
FTUS41 KRLX 021400 AAA
TAFCKB
TAF AMD
KCKB 021418Z 0214/0312 00000KT P6SM SCT250
     FM021800 32005KT P6SM SCT080
     FM030100 00000KT P6SM FEW080
     FM030900 00000KT 6SM BR FEW080=

USA.gov is the U.S. government's official web portal to all federal, state and local government web resources and services.